Brainerd, MN (56401)

5:41 AM CDT on September 02, 2015 (GMT -0500)
Northeast Brainerd | | Change Station
CLOSE
Current Station
Personal Weather Station
Location: Brainerd, MN
Elevation: 1249 ft
Nearby Weather Stations

Elev 1249 ft 46.37 °N, 94.18 °W | Updated 29 seconds ago

Partly Cloudy
Partly Cloudy
69.5 °F
Feels Like 69.5 °F
N
0.0
Wind Variable Wind from North
Gusts 0.0 mph

Today
High -- | Low -- °F
--% Chance of Precip.
Yesterday
High -- | Low -- °F
Precip. -- in
6:37 AM 7:53 PM
Waning Gibbous, 81% visible
Pressure 29.91 in
Visibility 3.0 miles
Clouds Mostly Cloudy 1500 ft
Dew Point 67 °F
Humidity 93%
Rainfall 0.00 in
Snow Depth Not available.
UV 0 out of 12
Pollen 9.80 out of 12
Air Quality Not available.
Flu Activity Not available.
SPECI KBRD 021012Z AUTO 17005KT 3SM BR BKN015 21/21 A2991 RMK AO2 T02060206
Pressure 29.91 in
Visibility 3.0 miles
Clouds Mostly Cloudy 1500 ft
Dew Point 67 °F
Humidity 93%
Rainfall 0.00 in
Snow Depth Not available.
UV 0 out of 12
Pollen 9.80 out of 12
Air Quality Not available.
Flu Activity Not available.
SPECI KBRD 021012Z AUTO 17005KT 3SM BR BKN015 21/21 A2991 RMK AO2 T02060206

10-Day Weather Forecast

×

Almanac

Astronomy

Sep. 02, 2015 Rise Set
Actual Time
Civil Twilight
Nautical Twilight
Astronomical Twilight
Moon
Length of Visible Light
Length of Day
Tomorrow will be .
, % of the Moon is Illuminated

Today's Extremes

State Highs State Lows

Community

WunderPhotos

Upload Photos

1,851,734 photos uploaded!

WunderBlogs® & News

Nearby

Air Quality

  Air Quality AQ Index Pollutant
Not available.

Snow Depth

Station Depth Elevation

Earthquake Activity

City Distance Mag. Time & Date
Minimum magnitude displayed is 2.5.

Coastal Water Temperatures

Place Temperature

Stations

Nearby Weather Stations

Station Location Temp. Windchill Dew Point Humidity Wind Precip. Elev Updated Type